createdAt,value
2023-03-29T04:17:18.947Z,-2.76
2023-03-29T04:20:24.315Z,-2.80
2023-03-29T04:23:27.112Z,-2.83
2023-03-29T04:26:30.577Z,-2.75
2023-03-29T04:29:33.596Z,-2.75
2023-03-29T04:32:37.895Z,-2.68
2023-03-29T04:35:40.856Z,-2.65
2023-03-29T04:38:48.022Z,-2.52
2023-03-29T04:41:51.032Z,-2.48
2023-03-29T04:44:54.768Z,-2.48
2023-03-29T04:47:59.722Z,-2.41
2023-03-29T04:51:03.173Z,-2.32
2023-03-29T04:54:06.060Z,-2.22
2023-03-29T04:57:10.197Z,-2.10
2023-03-29T05:00:17.212Z,-1.96
2023-03-29T05:03:22.085Z,-1.74
2023-03-29T05:06:25.454Z,-1.52
2023-03-29T05:09:28.900Z,-1.30
2023-03-29T05:12:31.605Z,-1.12
2023-03-29T05:15:34.673Z,-0.98
2023-03-29T05:18:37.370Z,-0.60
2023-03-29T05:21:41.074Z,-0.64
2023-03-29T05:24:44.579Z,-0.57
2023-03-29T05:27:47.761Z,-0.39
2023-03-29T05:31:01.626Z,-0.08
2023-03-29T05:34:05.749Z,0.18
2023-03-29T05:37:10.333Z,0.34
2023-03-29T05:40:14.877Z,0.38
2023-03-29T05:43:18.567Z,0.40
2023-03-29T05:46:21.731Z,0.60
2023-03-29T05:49:24.598Z,0.56
2023-03-29T05:52:28.292Z,0.87
2023-03-29T05:55:31.775Z,0.78
2023-03-29T05:58:34.710Z,0.85
2023-03-29T06:01:37.881Z,0.99
2023-03-29T06:04:43.788Z,1.34
2023-03-29T06:07:50.776Z,1.38
2023-03-29T06:11:04.730Z,1.39
2023-03-29T06:14:09.162Z,1.46
2023-03-29T06:17:15.276Z,1.44
2023-03-29T06:20:18.431Z,1.67
2023-03-29T06:23:23.278Z,1.78
2023-03-29T06:26:30.668Z,2.14
2023-03-29T06:29:33.664Z,2.09
2023-03-29T06:32:36.368Z,1.88
2023-03-29T06:35:43.091Z,2.31
2023-03-29T06:38:47.237Z,2.10
2023-03-29T06:41:51.607Z,2.50
2023-03-29T06:44:55.861Z,2.87
2023-03-29T06:47:59.354Z,3.06
2023-03-29T06:51:02.294Z,3.48
2023-03-29T06:54:06.055Z,3.50
2023-03-29T06:57:10.558Z,3.58
2023-03-29T07:00:28.068Z,3.57
2023-03-29T07:03:35.062Z,3.53
2023-03-29T07:06:39.231Z,4.15
2023-03-29T07:09:42.487Z,4.76
2023-03-29T07:12:46.532Z,4.11
2023-03-29T07:15:49.526Z,4.82
2023-03-29T07:18:52.881Z,3.91
2023-03-29T07:21:57.063Z,3.79
2023-03-29T07:25:05.882Z,4.16
2023-03-29T07:28:09.227Z,4.05
2023-03-29T07:31:13.422Z,4.07
2023-03-29T07:34:17.995Z,4.73
2023-03-29T07:37:21.663Z,5.17
2023-03-29T07:40:26.417Z,5.33
2023-03-29T07:43:31.383Z,5.74
2023-03-29T07:46:33.946Z,6.38
2023-03-29T07:49:36.860Z,5.96
2023-03-29T07:52:39.722Z,5.98
2023-03-29T07:55:47.717Z,6.03
2023-03-29T07:58:51.737Z,6.10
2023-03-29T08:01:55.372Z,7.22
2023-03-29T08:04:58.909Z,8.56
2023-03-29T08:08:04.664Z,7.10
2023-03-29T08:11:10.779Z,7.24
2023-03-29T08:14:14.014Z,7.54
2023-03-29T08:17:18.571Z,7.58
2023-03-29T08:20:21.323Z,6.40
2023-03-29T08:23:32.085Z,6.81
2023-03-29T08:26:35.673Z,8.12
2023-03-29T08:29:38.694Z,8.48
2023-03-29T08:32:41.836Z,8.99
2023-03-29T08:35:45.011Z,8.91
2023-03-29T08:38:50.536Z,8.59
2023-03-29T08:42:06.689Z,9.12
2023-03-29T08:45:43.981Z,10.80
2023-03-29T08:48:56.546Z,11.88
2023-03-29T08:52:02.600Z,12.46
2023-03-29T08:55:13.978Z,13.11
2023-03-29T08:58:27.072Z,12.22
2023-03-29T09:01:35.444Z,12.21
2023-03-29T09:04:40.479Z,12.40
2023-03-29T09:07:43.922Z,12.30
2023-03-29T09:11:01.701Z,10.86
2023-03-29T09:14:23.835Z,11.92
2023-03-29T09:17:49.820Z,12.12
2023-03-29T09:21:01.666Z,11.49
2023-03-29T09:24:29.021Z,12.37
2023-03-29T09:27:42.763Z,12.72
2023-03-29T09:31:04.076Z,12.45
2023-03-29T09:34:18.642Z,12.67
2023-03-29T09:37:38.627Z,12.47
2023-03-29T09:40:46.628Z,12.51
2023-03-29T09:43:51.630Z,12.13
2023-03-29T09:47:01.985Z,13.08
2023-03-29T09:50:29.675Z,13.80
2023-03-29T09:53:34.075Z,13.39
2023-03-29T09:56:39.501Z,14.01
2023-03-29T09:59:46.141Z,14.67
2023-03-29T10:02:53.922Z,14.61
2023-03-29T10:06:00.285Z,14.92
2023-03-29T10:09:04.620Z,14.82
2023-03-29T10:12:08.468Z,14.92
2023-03-29T10:15:26.756Z,13.74
2023-03-29T10:18:34.312Z,13.72
2023-03-29T10:21:37.655Z,13.71
2023-03-29T10:24:40.562Z,13.38
2023-03-29T10:27:44.976Z,14.91
2023-03-29T10:30:55.211Z,16.35
2023-03-29T10:34:02.803Z,17.14
2023-03-29T10:37:06.710Z,16.08
2023-03-29T10:40:18.758Z,14.81
2023-03-29T10:43:21.771Z,14.98
2023-03-29T10:46:41.646Z,14.48
2023-03-29T10:49:51.045Z,13.58
2023-03-29T10:52:53.876Z,14.32
2023-03-29T10:56:18.098Z,15.67
2023-03-29T10:59:31.728Z,17.19
2023-03-29T11:03:16.667Z,17.85
2023-03-29T11:07:01.430Z,20.64
2023-03-29T11:10:24.838Z,20.74
2023-03-29T11:13:51.506Z,17.99
2023-03-29T11:17:07.941Z,15.59
2023-03-29T11:20:21.663Z,13.16
2023-03-29T11:23:42.925Z,12.14
2023-03-29T11:27:19.395Z,12.30
2023-03-29T11:30:25.842Z,13.43
2023-03-29T11:33:43.962Z,15.19
2023-03-29T11:37:21.426Z,14.22
2023-03-29T11:40:39.408Z,12.18
2023-03-29T11:43:46.409Z,11.95
2023-03-29T11:47:27.170Z,12.27
2023-03-29T11:50:53.761Z,13.13
2023-03-29T11:54:15.449Z,13.24
2023-03-29T11:57:25.162Z,13.50
2023-03-29T12:00:33.242Z,12.53
2023-03-29T12:07:22.984Z,10.41
2023-03-29T12:14:26.081Z,10.73
2023-03-29T12:17:37.386Z,10.79
2023-03-29T12:20:40.866Z,10.55
2023-03-29T12:23:45.388Z,11.07
2023-03-29T12:27:10.589Z,11.02
2023-03-29T12:30:23.397Z,10.76
2023-03-29T12:33:51.048Z,10.47
2023-03-29T12:37:10.301Z,10.51
2023-03-29T12:40:17.723Z,11.12
2023-03-29T12:43:46.661Z,10.73
2023-03-29T12:46:57.696Z,10.96
2023-03-29T12:50:01.951Z,10.75
2023-03-29T12:53:15.078Z,10.71
2023-03-29T12:56:21.849Z,10.49
2023-03-29T12:59:24.636Z,9.97
2023-03-29T13:02:36.252Z,10.15
2023-03-29T13:05:39.676Z,10.23
2023-03-29T13:08:44.940Z,10.46
2023-03-29T13:11:55.254Z,9.94
2023-03-29T13:15:01.025Z,9.83
2023-03-29T13:18:27.703Z,10.31
2023-03-29T13:22:09.949Z,10.48
2023-03-29T13:25:32.655Z,10.14
2023-03-29T13:29:15.516Z,10.69
2023-03-29T13:32:53.062Z,10.73
2023-03-29T13:36:08.771Z,11.12
2023-03-29T13:39:29.384Z,10.88
2023-03-29T13:42:55.535Z,10.10
2023-03-29T13:45:58.184Z,10.55
2023-03-29T13:49:13.078Z,10.77
2023-03-29T13:52:21.734Z,11.20
2023-03-29T13:55:41.616Z,11.38
2023-03-29T13:59:07.095Z,11.58
2023-03-29T14:02:50.289Z,11.72
2023-03-29T14:06:02.472Z,11.76
2023-03-29T14:09:09.372Z,11.56
2023-03-29T14:12:20.631Z,11.38
2023-03-29T14:15:29.427Z,11.30
2023-03-29T14:18:37.771Z,11.42
2023-03-29T14:21:42.390Z,11.66
2023-03-29T14:24:54.053Z,11.52
2023-03-29T14:27:56.895Z,11.40
2023-03-29T14:30:59.907Z,11.19
2023-03-29T14:34:11.533Z,10.98
2023-03-29T14:37:27.025Z,10.70
2023-03-29T14:40:30.988Z,10.70
2023-03-29T14:43:34.307Z,10.52
2023-03-29T14:46:37.635Z,10.70
2023-03-29T14:49:41.306Z,10.58
2023-03-29T14:52:47.002Z,10.34
2023-03-29T14:55:52.994Z,10.29
2023-03-29T14:58:57.234Z,10.15
2023-03-29T15:02:01.058Z,10.18
2023-03-29T15:05:25.029Z,10.30
2023-03-29T15:08:33.448Z,10.22
2023-03-29T15:11:37.363Z,10.02
2023-03-29T15:14:40.568Z,9.89
2023-03-29T15:17:52.319Z,9.80
2023-03-29T15:20:55.958Z,9.68
2023-03-29T15:24:01.710Z,9.67
2023-03-29T15:27:14.355Z,9.62
